Flight Track Log - Related Links

Times and Time Zones

All times are in EDT time to prevent confusion due to time zone crossing. See the UAL914 flight status page for this flight to view local times or setup timezone preferences in your user account.


Time Position Orientation Groundspeed Altitude Reporting Facility
EDT Latitude Longitude Course Direction KTS MPH feet Rate Location/Type
Fri 05:38:18 PM 38.9910 -77.5590 316° Northwest 256 295 2,800  Level FlightAware ADS-B
Fri 05:38:33 PM 39.0080 -77.5710 331° Northwest 269 310 3,600 2,618 Climbing FlightAware ADS-B
Fri 05:39:13 PM 39.0580 -77.5700 North 294 338 5,200 2,769 Climbing FlightAware ADS-B
Fri 05:39:38 PM 39.0850 -77.5690 North 298 343 6,600 3,273 Climbing FlightAware ADS-B
Fri 05:40:08 PM 39.1300 -77.5650 North 298 343 8,200 2,900 Climbing FlightAware ADS-B
Fri 05:40:38 PM 39.1620 -77.5400 31° Northeast 315 362 9,500 2,133 Climbing FlightAware ADS-B
Fri 05:40:53 PM 39.1720 -77.5170 61° Northeast 322 371 9,800 1,200 Climbing FlightAware ADS-B
Fri 05:41:03 PM 39.1750 -77.4900 82° East 337 388 10,000 300 Climbing FlightAware ADS-B
Fri 05:41:33 PM 39.1640 -77.4320 104° East 377 434 10,000  Level FlightAware ADS-B
Fri 05:41:53 PM 39.1530 -77.3870 107° East 359 413 10,000 1,125 Level FlightAware ADS-B
Fri 05:42:53 PM 39.1250 -77.2710 107° East 338 389 11,500 1,800 Climbing FlightAware ADS-B
Fri 05:43:33 PM 39.1090 -77.2030 107° East 349 402 13,000 2,550 Climbing FlightAware ADS-B
Fri 05:44:13 PM 39.0870 -77.1160 108° East 362 417 14,900 2,777 Climbing FlightAware ADS-B
Fri 05:45:34 PM 39.0410 -76.9261 107° East 381 438 18,600 2,000 Climbing FlightAware ADS-B
Fri 05:46:16 PM 39.0180 -76.8346 108° East 386 444 19,000 393 Climbing FlightAware ADS-B
Fri 05:46:35 PM 39.0092 -76.7930 105° East 399 459 19,000  Level FlightAware ADS-B
Fri 05:46:48 PM 39.0080 -76.7628 93° East 416 479 19,000 140 Level FlightAware ADS-B
Fri 05:47:18 PM 39.0214 -76.6876 77° East 439 505 19,100 1,235 Climbing FlightAware ADS-B
Fri 05:47:56 PM 39.0479 -76.5930 70° East 443 510 20,400 2,029 Climbing FlightAware ADS-B
Fri 05:48:26 PM 39.0695 -76.5177 70° East 451 519 21,400 1,935 Climbing FlightAware ADS-B
Fri 05:48:58 PM 39.0925 -76.4373 70° East 460 529 22,400 1,548 Climbing FlightAware ADS-B
Fri 05:49:28 PM 39.1151 -76.3580 70° East 474 545 23,000 571 Climbing FlightAware ADS-B
Fri 05:50:01 PM 39.1393 -76.2714 70° East 477 549 23,000  Level FlightAware ADS-B
Fri 05:50:14 PM 39.1475 -76.2355 74° East 472 543 23,000  Level FlightAware ADS-B
Fri 05:50:27 PM 39.1539 -76.2002 77° East 470 541 23,000  Level FlightAware ADS-B
Fri 05:50:50 PM 39.1624 -76.1371 80° East 470 541 23,000  Level FlightAware ADS-B
Fri 05:51:20 PM 39.1721 -76.0541 81° East 472 543 23,000  Level FlightAware ADS-B
Fri 05:51:50 PM 39.1816 -75.9695 82° East 471 542 23,000 571 Level FlightAware ADS-B
Fri 05:52:02 PM 39.1859 -75.9364 80° East 468 539 23,400 1,565 Climbing FlightAware ADS-B
Fri 05:52:13 PM 39.1928 -75.9067 73° East 471 542 23,600 1,143 Climbing FlightAware ADS-B
Fri 05:52:23 PM 39.2014 -75.8827 65° Northeast 474 545 23,800 1,333 Climbing FlightAware ADS-B
Fri 05:52:31 PM 39.2101 -75.8637 59° Northeast 475 547 24,000 1,667 Climbing FlightAware ADS-B
Fri 05:52:41 PM 39.2233 -75.8408 53° Northeast 476 548 24,300 1,463 Climbing FlightAware ADS-B
Fri 05:53:12 PM 39.2715 -75.7766 46° Northeast 483 556 25,000 1,406 Climbing FlightAware ADS-B
Fri 05:53:45 PM 39.3233 -75.7094 45° Northeast 492 566 25,800 1,500 Climbing FlightAware ADS-B
Fri 05:54:20 PM 39.3815 -75.6343 45° Northeast 500 575 26,700 1,455 Climbing FlightAware ADS-B
Fri 05:54:51 PM 39.4325 -75.5684 45° Northeast 508 585 27,400 1,853 Climbing FlightAware ADS-B
Fri 05:55:28 PM 39.4925 -75.4906 45° Northeast 501 577 28,800 2,586 Climbing FlightAware ADS-B
Fri 05:55:49 PM 39.5303 -75.4508 39° Northeast 484 557 29,900 2,824 Climbing FlightAware ADS-B
Fri 05:56:02 PM 39.5553 -75.4304 32° Northeast 479 551 30,400 2,372 Climbing FlightAware ADS-B
Fri 05:56:32 PM 39.6108 -75.3840 33° Northeast 472 543 31,600 2,066 Climbing FlightAware ADS-B
Fri 05:57:03 PM 39.6664 -75.3384 32° Northeast 469 540 32,500 1,619 Climbing FlightAware ADS-B
Fri 05:57:35 PM 39.7261 -75.2891 32° Northeast 470 541 33,300 1,500 Climbing FlightAware ADS-B
Fri 05:57:39 PM 39.7329 -75.2824 37° Northeast 471 542 33,400 1,200 Climbing FlightAware ADS-B
Fri 05:57:50 PM 39.7500 -75.2598 45° Northeast 479 551 33,600 1,304 Climbing FlightAware ADS-B
Fri 05:58:25 PM 39.7956 -75.1813 53° Northeast 479 551 34,400 1,292 Climbing FlightAware ADS-B
Fri 05:58:55 PM 39.8356 -75.1125 53° Northeast 478 550 35,000 600 Climbing FlightAware ADS-B
Fri 05:59:25 PM 39.8760 -75.0439 52° Northeast 481 554 35,000  Level FlightAware ADS-B
Fri 05:59:55 PM 39.9175 -74.9744 52° Northeast 478 550 35,000  Level FlightAware ADS-B
Fri 06:00:26 PM 39.9589 -74.9045 52° Northeast 478 550 35,000  Level FlightAware ADS-B
Fri 06:00:58 PM 40.0025 -74.8318 52° Northeast 479 551 35,000  Level FlightAware ADS-B
Fri 06:01:29 PM 40.0446 -74.7612 52° Northeast 480 552 35,000  Level FlightAware ADS-B
Fri 06:01:59 PM 40.0857 -74.6926 52° Northeast 480 552 35,000  Level FlightAware ADS-B
Fri 06:02:30 PM 40.1272 -74.6223 52° Northeast 479 551 35,000  Level FlightAware ADS-B
Fri 06:03:00 PM 40.1681 -74.5537 52° Northeast 478 550 35,000  Level FlightAware ADS-B
Fri 06:03:30 PM 40.2111 -74.4860 50° Northeast 478 550 35,000  Level FlightAware ADS-B
Fri 06:04:01 PM 40.2559 -74.4185 49° Northeast 478 550 35,000  Level FlightAware ADS-B
Fri 06:04:33 PM 40.3017 -74.3513 48° Northeast 478 550 35,000  Level FlightAware ADS-B
Fri 06:05:12 PM 40.3607 -74.2657 48° Northeast 479 551 35,000  Level FlightAware ADS-B
Fri 06:05:46 PM 40.4105 -74.1938 48° Northeast 480 552 35,000  Level FlightAware ADS-B
Fri 06:06:17 PM 40.4573 -74.1257 48° Northeast 480 552 35,000  Level FlightAware ADS-B
Fri 06:06:49 PM 40.5041 -74.0575 48° Northeast 481 554 35,000  Level FlightAware ADS-B
Fri 06:07:19 PM 40.5494 -73.9912 48° Northeast 480 552 35,000  Level FlightAware ADS-B
Fri 06:07:53 PM 40.5995 -73.9169 48° Northeast 480 552 35,000  Level FlightAware ADS-B
Fri 06:08:23 PM 40.6370 -73.8610 49° Northeast 479 551 35,000  Level FlightAware ADS-B
Fri 06:08:42 PM 40.6715 -73.8106 48° Northeast 479 551 35,000  Level FlightAware ADS-B
Fri 06:09:44 PM 40.7620 -73.6760 48° Northeast 478 550 35,000  Level FlightAware ADS-B
Fri 06:10:16 PM 40.8085 -73.6065 49° Northeast 476 548 35,000  Level FlightAware ADS-B
Fri 06:10:48 PM 40.8555 -73.5363 48° Northeast 476 548 35,000  Level FlightAware ADS-B
Fri 06:11:20 PM 40.9013 -73.4677 49° Northeast 476 548 35,000  Level FlightAware ADS-B
Fri 06:11:50 PM 40.9451 -73.4022 48° Northeast 474 545 35,000  Level FlightAware ADS-B
Fri 06:12:29 PM 41.0012 -73.3176 49° Northeast 473 544 35,000  Level FlightAware ADS-B
Fri 06:13:01 PM 41.0471 -73.2485 49° Northeast 473 544 35,000  Level FlightAware ADS-B
Fri 06:13:31 PM 41.0910 -73.1819 49° Northeast 477 549 35,000  Level FlightAware ADS-B
Fri 06:14:02 PM 41.1362 -73.1136 49° Northeast 479 551 35,000  Level FlightAware ADS-B
Fri 06:14:44 PM 41.1965 -73.0219 49° Northeast 481 554 35,000  Level FlightAware ADS-B
Fri 06:15:23 PM 41.2490 -72.9420 49° Northeast 478 550 35,000  Level FlightAware ADS-B
Fri 06:16:08 PM 41.3150 -72.8410 49° Northeast 477 549 35,000  Level FlightAware ADS-B
Fri 06:16:48 PM 41.3730 -72.7510 49° Northeast 477 549 35,000  Level FlightAware ADS-B
Fri 06:17:33 PM 41.4370 -72.6530 49° Northeast 477 549 35,000  Level FlightAware ADS-B
Fri 06:18:03 PM 41.4750 -72.5950 49° Northeast 477 549 35,000  Level FlightAware ADS-B
Fri 06:19:08 PM 41.5710 -72.4460 49° Northeast 478 550 35,000  Level FlightAware ADS-B
Fri 06:19:13 PM 41.4580 -72.6210 229° Southwest 35,000  Level FlightAware ADS-B
Fri 06:19:38 PM 41.6120 -72.3820 49° Northeast 480 552 35,000  Level FlightAware ADS-B
Fri 06:20:08 PM 41.6570 -72.3120 49° Northeast 481 554 35,000  Level FlightAware ADS-B
Fri 06:21:03 PM 41.7400 -72.1840 49° Northeast 483 556 35,000  Level FlightAware ADS-B
Fri 06:21:43 PM 41.8010 -72.1020 45° Northeast 479 551 35,000  Level FlightAware ADS-B
Fri 06:22:28 PM 41.8740 -72.0150 42° Northeast 479 551 35,000  Level FlightAware ADS-B
Fri 06:23:08 PM 41.9470 -71.9320 40° Northeast 481 554 35,000  Level FlightAware ADS-B
Fri 06:23:48 PM 42.0140 -71.8540 41° Northeast 482 555 35,000  Level FlightAware ADS-B
Fri 06:24:33 PM 42.0860 -71.7720 40° Northeast 483 556 35,000  Level FlightAware ADS-B
Fri 06:25:13 PM 42.1530 -71.6950 40° Northeast 485 558 35,000  Level FlightAware ADS-B
Fri 06:25:58 PM 42.2310 -71.6050 40° Northeast 485 558 35,000  Level FlightAware ADS-B
Fri 06:26:38 PM 42.3000 -71.5260 40° Northeast 483 556 35,000  Level FlightAware ADS-B
Fri 06:27:18 PM 42.3650 -71.4490 41° Northeast 483 556 35,000  Level FlightAware ADS-B
Fri 06:28:03 PM 42.4410 -71.3610 41° Northeast 477 549 35,000  Level FlightAware ADS-B
Fri 06:28:43 PM 42.5100 -71.2800 41° Northeast 477 549 35,000  Level FlightAware ADS-B
Fri 06:29:28 PM 42.5840 -71.1940 41° Northeast 476 548 35,000  Level FlightAware ADS-B
Fri 06:30:08 PM 42.6520 -71.1130 41° Northeast 476 548 35,000  Level FlightAware ADS-B
Fri 06:30:48 PM 42.7210 -71.0330 40° Northeast 476 548 35,000  Level FlightAware ADS-B
Fri 06:31:33 PM 42.7960 -70.9440 41° Northeast 476 548 35,000  Level FlightAware ADS-B
Fri 06:32:13 PM 42.8630 -70.8630 42° Northeast 475 547 35,000  Level FlightAware ADS-B
Fri 06:32:53 PM 42.9300 -70.7840 41° Northeast 475 547 35,000  Level FlightAware ADS-B
Fri 06:33:38 PM 43.0070 -70.6920 41° Northeast 475 547 35,000  Level FlightAware ADS-B
Fri 06:34:18 PM 43.0730 -70.6120 42° Northeast 475 547 35,000  Level FlightAware ADS-B
Fri 06:35:03 PM 43.1440 -70.5270 41° Northeast 475 547 35,000  Level FlightAware ADS-B
Fri 06:35:43 PM 43.2150 -70.4420 41° Northeast 474 545 35,000  Level FlightAware ADS-B
Fri 06:36:28 PM 43.2950 -70.3450 41° Northeast 478 550 35,000  Level FlightAware ADS-B
Fri 06:37:08 PM 43.3620 -70.2630 42° Northeast 478 550 35,000  Level FlightAware ADS-B
Fri 06:37:53 PM 43.4340 -70.1750 42° Northeast 476 548 35,000  Level FlightAware ADS-B
Fri 06:38:28 PM 43.4940 -70.1020 41° Northeast 476 548 35,000  Level FlightAware ADS-B
Fri 06:39:13 PM 43.5650 -70.0150 42° Northeast 476 548 35,000  Level FlightAware ADS-B
Fri 06:39:58 PM 43.6420 -69.9200 42° Northeast 475 547 35,000  Level FlightAware ADS-B
Fri 06:40:38 PM 43.7080 -69.8390 42° Northeast 475 547 35,000  Level FlightAware ADS-B
Fri 06:41:18 PM 43.7720 -69.7600 42° Northeast 475 547 35,000  Level FlightAware ADS-B
Fri 06:42:03 PM 43.8440 -69.6700 42° Northeast 474 545 35,000  Level FlightAware ADS-B
Fri 06:42:43 PM 43.9040 -69.5960 42° Northeast 473 544 35,000  Level FlightAware ADS-B
Fri 06:43:28 PM 43.9780 -69.5030 42° Northeast 473 544 35,000  Level FlightAware ADS-B
Fri 06:44:08 PM 44.0420 -69.4230 42° Northeast 473 544 35,000  Level FlightAware ADS-B
Fri 06:44:48 PM 44.1070 -69.3410 42° Northeast 475 547 35,000  Level FlightAware ADS-B
Fri 06:45:33 PM 44.1870 -69.2400 42° Northeast 475 547 35,000  Level FlightAware ADS-B
Fri 06:46:18 PM 44.2520 -69.1570 42° Northeast 475 547 35,000  Level FlightAware ADS-B
Fri 06:47:13 PM 44.3490 -69.0340 42° Northeast 474 545 35,000  Level FlightAware ADS-B
Fri 06:47:53 PM 44.4110 -68.9550 42° Northeast 474 545 35,000  Level FlightAware ADS-B
Fri 06:48:33 PM 44.4780 -68.8690 42° Northeast 473 544 35,000  Level FlightAware ADS-B
Fri 06:49:18 PM 44.5510 -68.7750 43° Northeast 472 543 35,000  Level FlightAware ADS-B
Fri 06:49:58 PM 44.6150 -68.6920 43° Northeast 470 541 35,000  Level FlightAware ADS-B
Fri 06:50:43 PM 44.6860 -68.6000 43° Northeast 470 541 35,000  Level FlightAware ADS-B
Fri 06:51:18 PM 44.7420 -68.5270 43° Northeast 469 540 35,000  Level FlightAware ADS-B
Fri 06:52:03 PM 44.8130 -68.4350 43° Northeast 468 539 35,000  Level FlightAware ADS-B
Fri 06:52:48 PM 44.8830 -68.3440 43° Northeast 467 537 35,000  Level FlightAware ADS-B
Fri 06:53:28 PM 44.9490 -68.2570 43° Northeast 466 536 35,000  Level FlightAware ADS-B
Fri 06:54:08 PM 45.0130 -68.1740 43° Northeast 465 535 35,000  Level FlightAware ADS-B
Fri 06:54:53 PM 45.0820 -68.0830 43° Northeast 464 534 35,000  Level FlightAware ADS-B
Fri 06:55:33 PM 45.1440 -67.9990 44° Northeast 464 534 35,000  Level FlightAware ADS-B
Fri 06:56:18 PM 45.2150 -67.9050 43° Northeast 462 532 35,000  Level FlightAware ADS-B
Fri 06:57:03 PM 45.2850 -67.8130 43° Northeast 462 532 35,000  Level FlightAware ADS-B
Fri 06:57:53 PM 45.3630 -67.7140 42° Northeast 457 526 35,000  Level FlightAware ADS-B
Fri 06:58:38 PM 45.4390 -67.6290 38° Northeast 456 525 35,000  Level FlightAware ADS-B
Fri 06:59:18 PM 45.4990 -67.5630 38° Northeast 449 517 35,000  Level FlightAware ADS-B
Fri 07:00:28 PM 45.6140 -67.4360 38° Northeast 454 522 35,000  Level FlightAware ADS-B
Fri 07:01:38 PM 45.7300 -67.3060 38° Northeast 454 522 35,000  Level FlightAware ADS-B
Fri 07:02:58 PM 45.8620 -67.1570 38° Northeast 455 524 35,000  Level FlightAware ADS-B
Fri 07:04:08 PM 45.9770 -67.0270 38° Northeast 454 522 35,000  Level FlightAware ADS-B
Fri 07:04:53 PM 46.0590 -66.9340 38° Northeast 455 524 35,000  Level FlightAware ADS-B
Fri 07:05:38 PM 46.1310 -66.8520 38° Northeast 455 524 35,000  Level FlightAware ADS-B
Fri 07:06:18 PM 46.1960 -66.7770 39° Northeast 456 525 35,000  Level FlightAware ADS-B
Fri 07:06:58 PM 46.2590 -66.7060 38° Northeast 455 524 35,000  Level FlightAware ADS-B
Fri 07:07:43 PM 46.3280 -66.6270 38° Northeast 455 524 35,000  Level FlightAware ADS-B
Fri 07:08:23 PM 46.3840 -66.5640 38° Northeast 455 524 35,000  Level FlightAware ADS-B
Fri 07:09:03 PM 46.4400 -66.5000 38° Northeast 455 524 35,000  Level FlightAware ADS-B
Fri 07:09:43 PM 46.4970 -66.4360 38° Northeast 455 524 35,000  Level FlightAware ADS-B
Fri 07:10:33 PM 46.5670 -66.3560 38° Northeast 455 524 35,000  Level FlightAware ADS-B
Fri 07:11:13 PM 46.6240 -66.2910 38° Northeast 455 524 35,000  Level FlightAware ADS-B
Fri 07:11:53 PM 46.6800 -66.2270 38° Northeast 455 524 35,000  Level FlightAware ADS-B
Fri 07:12:33 PM 46.7360 -66.1630 38° Northeast 455 524 35,000  Level FlightAware ADS-B
Fri 07:13:13 PM 46.7930 -66.0990 38° Northeast 455 524 35,000  Level FlightAware ADS-B
Fri 07:14:03 PM 46.8630 -66.0180 38° Northeast 455 524 35,000  Level FlightAware ADS-B
Fri 07:14:43 PM 46.9200 -65.9540 37° Northeast 455 524 35,000  Level FlightAware ADS-B
Fri 07:15:23 PM 46.9760 -65.8890 38° Northeast 455 524 35,000  Level FlightAware ADS-B
Fri 07:16:03 PM 47.0320 -65.8240 38° Northeast 455 524 35,000  Level FlightAware ADS-B
Fri 07:16:43 PM 47.0890 -65.7600 37° Northeast 455 524 35,000  Level FlightAware ADS-B
Fri 07:17:42 PM 47.3167 -65.4167 37° Northeast 470 541 35,000  Level Gander Center
Fri 07:18:42 PM 47.4167 -65.3000 38° Northeast 460 529 35,000  Level Gander Center
Fri 07:19:42 PM 47.5333 -65.1833 34° Northeast 460 529 35,000  Level Gander Center
Fri 07:20:42 PM 47.6167 -65.0667 43° Northeast 460 529 35,000  Level Gander Center
Fri 07:21:42 PM 47.7167 -64.9333 42° Northeast 460 529 35,000  Level Gander Center
Fri 07:22:42 PM 47.8000 -64.8333 39° Northeast 460 529 35,000  Level Gander Center
Fri 07:23:48 PM 47.9167 -64.7000 37° Northeast 450 518 35,000  Level Moncton Center
Fri 07:24:47 PM 48.0167 -64.5667 42° Northeast 460 529 35,000  Level Moncton Center
Fri 07:25:48 PM 48.1167 -64.4500 38° Northeast 460 529 35,000  Level Moncton Center
Fri 07:26:47 PM 48.2167 -64.3167 42° Northeast 460 529 35,000  Level Moncton Center
Fri 07:27:48 PM 48.3167 -64.2000 38° Northeast 470 541 35,000  Level Moncton Center
Fri 07:28:47 PM 48.4167 -64.0667 41° Northeast 470 541 35,000  Level Moncton Center
Fri 07:29:48 PM 48.5167 -63.9500 38° Northeast 470 541 35,000  Level Moncton Center
Fri 07:30:47 PM 48.6167 -63.7833 48° Northeast 470 541 35,000  Level Moncton Center
Fri 07:31:47 PM 48.7167 -63.6833 33° Northeast 460 529 35,000  Level Moncton Center
Fri 07:32:42 PM 48.8167 -63.5667 38° Northeast 480 552 35,000  Level Gander Center
Fri 07:33:42 PM 48.9000 -63.4500 43° Northeast 470 541 35,000  Level Gander Center
Fri 07:34:42 PM 49.0000 -63.3000 45° Northeast 470 541 35,000  Level Gander Center
Fri 07:35:42 PM 49.1000 -63.1667 41° Northeast 470 541 35,000  Level Gander Center
Fri 07:36:42 PM 49.2000 -63.0167 44° Northeast 480 552 35,000  Level Gander Center
Fri 07:37:42 PM 49.2833 -62.9000 42° Northeast 480 552 35,000  Level Gander Center
Fri 07:38:42 PM 49.4000 -62.7667 37° Northeast 470 541 35,000  Level Gander Center
Fri 07:39:42 PM 49.5000 -62.6167 44° Northeast 480 552 35,000  Level Gander Center
Fri 07:40:42 PM 49.6000 -62.5000 37° Northeast 480 552 35,000  Level Gander Center
Fri 07:41:42 PM 49.7000 -62.3667 41° Northeast 470 541 35,000  Level Gander Center
Fri 07:42:42 PM 49.7833 -62.2167 49° Northeast 470 541 35,000  Level Gander Center
Fri 07:43:42 PM 49.9000 -62.0833 36° Northeast 480 552 35,000  Level Gander Center
Fri 07:44:42 PM 49.9833 -61.9333 49° Northeast 480 552 35,000  Level Gander Center
Fri 07:45:42 PM 50.1000 -61.8000 36° Northeast 480 552 35,000  Level Gander Center
Fri 07:46:42 PM 50.1833 -61.6500 49° Northeast 490 564 35,000  Level Gander Center
Fri 07:47:47 PM 50.3167 -61.4833 39° Northeast 480 552 35,000 550 Level Moncton Center
Fri 07:48:42 PM 50.3833 -61.3833 44° Northeast 480 552 36,100 417 Climbing Gander Center
Fri 07:49:42 PM 50.4833 -61.2333 44° Northeast 480 552 35,800 -50 Descending Gander Center
Fri 07:50:42 PM 50.5833 -61.1000 40° Northeast 470 541 36,000 100 Climbing Gander Center
Fri 07:51:42 PM 50.6833 -60.9667 40° Northeast 460 529 36,000  Level Gander Center
Fri 07:52:42 PM 50.7833 -60.8333 40° Northeast 490 564 36,000  Level Gander Center
Fri 07:53:42 PM 50.8833 -60.6667 46° Northeast 470 541 36,000  Level Gander Center
Fri 07:54:42 PM 50.9833 -60.5333 40° Northeast 490 564 36,000  Level Gander Center
Fri 07:55:42 PM 51.0833 -60.3833 43° Northeast 490 564 36,000  Level Gander Center
Fri 07:56:42 PM 51.1833 -60.2333 43° Northeast 490 564 36,000  Level Gander Center
Fri 07:57:48 PM 51.3000 -60.0667 42° Northeast 490 564 36,000  Level Moncton Center
Fri 07:58:42 PM 51.3833 -59.9500 41° Northeast 490 564 36,000  Level Gander Center
Fri 07:59:42 PM 51.4833 -59.7500 51° Northeast 500 575 36,000  Level Gander Center
Fri 08:00:42 PM 51.5667 -59.5833 51° Northeast 500 575 36,000  Level Gander Center
Fri 08:01:42 PM 51.6667 -59.4167 46° Northeast 500 575 36,000  Level Gander Center
Fri 08:02:42 PM 51.7500 -59.2333 54° Northeast 500 575 36,000  Level Gander Center
Fri 08:03:42 PM 51.8333 -59.0833 48° Northeast 500 575 36,000  Level Gander Center
Fri 08:04:42 PM 51.9333 -58.9000 48° Northeast 510 587 36,000  Level Gander Center
Fri 08:05:42 PM 52.0333 -58.7333 46° Northeast 510 587 36,000  Level Gander Center
Fri 08:06:42 PM 52.1167 -58.5333 56° Northeast 510 587 36,000  Level Gander Center
Fri 08:07:42 PM 52.2000 -58.3667 51° Northeast 510 587 36,000 -500 Level Gander Center
Fri 08:08:42 PM 52.3000 -58.1833 48° Northeast 510 587 35,000 -500 Descending Gander Center
Fri 08:09:42 PM 52.3833 -58.0167 51° Northeast 510 587 35,000  Level Gander Center
Fri 08:10:42 PM 52.4833 -57.8167 51° Northeast 510 587 35,000  Level Gander Center
Fri 08:11:48 PM 52.5833 -57.6167 51° Northeast 510 587 35,000  Level Moncton Center
Fri 08:12:48 PM 52.6667 -57.4333 53° Northeast 510 587 35,000  Level Moncton Center
Fri 08:13:48 PM 52.7667 -57.2667 45° Northeast 510 587 35,000  Level Moncton Center
Fri 08:14:48 PM 52.8333 -57.0833 59° Northeast 510 587 35,000  Level Moncton Center
Fri 08:15:42 PM 52.9333 -56.9333 42° Northeast 520 598 35,000  Level Gander Center
Fri 08:16:42 PM 53.0333 -56.7167 52° Northeast 520 598 35,000  Level Gander Center
Fri 08:17:42 PM 53.1167 -56.5500 50° Northeast 520 598 35,000  Level Gander Center
Fri 08:18:42 PM 53.2000 -56.3333 57° Northeast 530 610 35,000  Level Gander Center
Fri 08:19:42 PM 53.3000 -56.1667 45° Northeast 530 610 35,000  Level Gander Center
Fri 08:20:42 PM 53.3833 -55.9500 57° Northeast 530 610 35,000  Level Gander Center
Fri 08:21:42 PM 53.4667 -55.7667 53° Northeast 530 610 35,000  Level Gander Center
Fri 08:22:42 PM 53.5667 -55.5667 50° Northeast 530 610 35,000  Level Gander Center
Fri 08:23:42 PM 53.6500 -55.3833 52° Northeast 530 610 35,000  Level Gander Center
Fri 08:24:41 PM 53.7500 -55.1667 52° Northeast 530 610 35,000  Level Gander Center
Fri 08:25:41 PM 53.8333 -54.9833 52° Northeast 530 610 35,000  Level Gander Center
Fri 08:26:41 PM 53.9000 -54.7500 64° Northeast 530 610 35,000  Level Gander Center
Fri 08:27:41 PM 53.9667 -54.5167 64° Northeast 540 621 35,000  Level Gander Center
Fri 08:28:41 PM 54.0333 -54.2167 69° East 550 633 35,000  Level Gander Center
Fri 08:29:41 PM 54.0500 -54.0667 79° East 540 621 35,000  Level Gander Center
Fri 08:30:38 PM 54.1000 -53.8333 70° East 550 633 35,000  Level Gander Center
Fri 08:31:38 PM 54.1667 -53.5833 65° Northeast 550 633 35,000  Level Gander Center
Fri 08:32:38 PM 54.2333 -53.3500 64° Northeast 550 633 35,000  Level Gander Center
Fri 08:33:38 PM 54.3000 -53.1167 64° Northeast 550 633 35,000  Level Gander Center
Fri 08:34:38 PM 54.3333 -52.8667 77° East 550 633 35,000  Level Gander Center
Fri 08:35:38 PM 54.4000 -52.6333 64° Northeast 550 633 35,000  Level Gander Center
Fri 08:36:38 PM 54.4667 -52.3833 65° Northeast 550 633 35,000  Level Gander Center
Fri 08:37:38 PM 54.5000 -52.1500 76° East 550 633 35,000  Level Gander Center
Fri 08:38:38 PM 54.5667 -51.9000 65° Northeast 550 633 35,000  Level Gander Center
Fri 08:39:38 PM 54.6167 -51.6500 71° East 550 633 35,000  Level Gander Center
Fri 08:40:38 PM 54.6667 -51.4000 71° East 550 633 35,000  Level Gander Center
Fri 08:41:38 PM 54.7167 -51.1333 72° East 550 633 35,000  Level Gander Center
Fri 08:42:38 PM 54.7833 -50.8833 65° Northeast 550 633 35,000  Level Gander Center
Fri 08:43:38 PM 54.8333 -50.6333 71° East 560 644 35,000  Level Gander Center
Fri 08:47:00 PM 54.9119 -50.3368 65° Northeast  Level FlightAware Approximate
Fri 08:54:00 PM 55.2833 -48.8498 66° East  Level FlightAware Approximate
Fri 08:55:00 PM 55.3345 -48.6350 67° East  Level FlightAware Approximate
Fri 08:56:00 PM 55.3854 -48.4195 67° East  Level FlightAware Approximate
Fri 08:57:00 PM 55.4360 -48.2036 68° East  Level FlightAware Approximate
Fri 08:58:00 PM 55.4861 -47.9870 68° East  Level FlightAware Approximate
Fri 08:59:00 PM 55.5359 -47.7700 68° East  Level FlightAware Approximate
Fri 09:00:00 PM 55.5852 -47.5523 68° East  Level FlightAware Approximate
Fri 09:01:00 PM 55.6342 -47.3341 68° East  Level FlightAware Approximate
Fri 09:02:00 PM 55.6828 -47.1154 68° East  Level FlightAware Approximate
Fri 09:03:00 PM 55.7310 -46.8962 69° East  Level FlightAware Approximate
Fri 09:04:00 PM 55.7789 -46.6764 69° East  Level FlightAware Approximate
Fri 09:05:00 PM 55.8263 -46.4560 69° East  Level FlightAware Approximate
Fri 09:06:00 PM 55.8733 -46.2352 69° East  Level FlightAware Approximate
Fri 09:07:00 PM 55.9200 -46.0137 69° East  Level FlightAware Approximate
Fri 09:08:00 PM 55.9662 -45.7918 70° East  Level FlightAware Approximate
Fri 09:09:00 PM 56.0120 -45.5693 70° East  Level FlightAware Approximate
Fri 09:10:00 PM 56.0575 -45.3464 70° East  Level FlightAware Approximate
Fri 09:11:00 PM 56.1025 -45.1228 70° East  Level FlightAware Approximate
Fri 09:12:00 PM 56.1471 -44.8988 70° East  Level FlightAware Approximate
Fri 09:13:00 PM 56.1914 -44.6742 70° East  Level FlightAware Approximate
Fri 09:14:00 PM 56.2352 -44.4492 71° East  Level FlightAware Approximate
Fri 09:15:00 PM 56.2786 -44.2236 71° East  Level FlightAware Approximate
Fri 09:16:00 PM 56.3216 -43.9975 71° East  Level FlightAware Approximate
Fri 09:17:00 PM 56.3642 -43.7709 71° East  Level FlightAware Approximate
Fri 09:18:00 PM 56.4063 -43.5438 71° East  Level FlightAware Approximate
Fri 09:19:00 PM 56.4481 -43.3162 72° East  Level FlightAware Approximate
Fri 09:20:00 PM 56.4894 -43.0880 72° East  Level FlightAware Approximate
Fri 09:21:00 PM 56.5303 -42.8594 72° East  Level FlightAware Approximate
Fri 09:22:00 PM 56.5708 -42.6303 72° East  Level FlightAware Approximate
Fri 09:23:00 PM 56.6109 -42.4008 72° East  Level FlightAware Approximate
Fri 09:24:00 PM 56.6505 -42.1707 73° East  Level FlightAware Approximate
Fri 09:25:00 PM 56.6898 -41.9401 73° East  Level FlightAware Approximate
Fri 09:26:00 PM 56.7286 -41.7091 73° East  Level FlightAware Approximate
Fri 09:27:00 PM 56.7669 -41.4776 73° East  Level FlightAware Approximate
Fri 09:28:00 PM 56.8049 -41.2456 73° East  Level FlightAware Approximate
Fri 09:29:00 PM 56.8424 -41.0132 73° East  Level FlightAware Approximate
Fri 09:30:00 PM 56.8795 -40.7803 74° East  Level FlightAware Approximate
Fri 09:31:00 PM 56.9161 -40.5469 74° East  Level FlightAware Approximate
Fri 09:32:00 PM 56.9523 -40.3131 74° East  Level FlightAware Approximate
Fri 09:33:00 PM 56.9881 -40.0788 74° East  Level FlightAware Approximate
Fri 09:34:00 PM 57.0063 -39.8387 86° East  Level FlightAware Approximate
Fri 09:35:00 PM 57.0155 -39.5957 86° East  Level FlightAware Approximate
Fri 09:36:00 PM 57.0242 -39.3527 86° East  Level FlightAware Approximate
Fri 09:37:00 PM 57.0324 -39.1095 86° East  Level FlightAware Approximate
Fri 09:38:00 PM 57.0401 -38.8661 87° East  Level FlightAware Approximate
Fri 09:39:00 PM 57.0474 -38.6227 87° East  Level FlightAware Approximate
Fri 09:40:00 PM 57.0542 -38.3792 87° East  Level FlightAware Approximate
Fri 09:41:00 PM 57.0605 -38.1357 87° East  Level FlightAware Approximate
Fri 09:42:00 PM 57.0664 -37.8920 87° East  Level FlightAware Approximate
Fri 09:43:00 PM 57.0718 -37.6483 88° East  Level FlightAware Approximate
Fri 09:44:00 PM 57.0767 -37.4044 88° East  Level FlightAware Approximate
Fri 09:45:00 PM 57.0811 -37.1606 88° East  Level FlightAware Approximate
Fri 09:46:00 PM 57.0851 -36.9167 88° East  Level FlightAware Approximate
Fri 09:47:00 PM 57.0886 -36.6727 88° East  Level FlightAware Approximate
Fri 09:48:00 PM 57.0916 -36.4289 89° East  Level FlightAware Approximate
Fri 09:49:00 PM 57.0941 -36.1851 89° East  Level FlightAware Approximate
Fri 09:50:00 PM 57.0962 -35.9412 89° East  Level FlightAware Approximate
Fri 09:51:00 PM 57.0978 -35.6974 89° East  Level FlightAware Approximate
Fri 09:52:00 PM 57.0989 -35.4535 89° East  Level FlightAware Approximate
Fri 09:53:00 PM 57.0995 -35.2096 90° East  Level FlightAware Approximate
Fri 09:54:00 PM 57.0997 -34.9657 90° East  Level FlightAware Approximate
Fri 09:55:00 PM 57.0994 -34.7218 90° East  Level FlightAware Approximate
Fri 09:56:00 PM 57.0986 -34.4779 90° East  Level FlightAware Approximate
Fri 09:57:00 PM 57.0974 -34.2340 90° East  Level FlightAware Approximate
Fri 09:58:00 PM 57.0956 -33.9901 91° East  Level FlightAware Approximate
Fri 09:59:00 PM 57.0934 -33.7463 91° East  Level FlightAware Approximate
Fri 10:00:00 PM 57.0908 -33.5025 91° East  Level FlightAware Approximate
Fri 10:01:00 PM 57.0876 -33.2587 91° East  Level FlightAware Approximate
Fri 10:02:00 PM 57.0840 -33.0150 91° East  Level FlightAware Approximate
Fri 10:03:00 PM 57.0799 -32.7713 92° East  Level FlightAware Approximate
Fri 10:04:00 PM 57.0754 -32.5277 92° East  Level FlightAware Approximate
Fri 10:05:00 PM 57.0703 -32.2842 92° East  Level FlightAware Approximate
Fri 10:06:00 PM 57.0648 -32.0407 92° East  Level FlightAware Approximate
Fri 10:07:00 PM 57.0588 -31.7973 92° East  Level FlightAware Approximate
Fri 10:08:00 PM 57.0524 -31.5539 93° East  Level FlightAware Approximate
Fri 10:09:00 PM 57.0455 -31.3107 93° East  Level FlightAware Approximate
Fri 10:10:00 PM 57.0381 -31.0676 93° East  Level FlightAware Approximate
Fri 10:11:00 PM 57.0302 -30.8245 93° East  Level FlightAware Approximate
Fri 10:12:00 PM 57.0219 -30.5816 94° East  Level FlightAware Approximate
Fri 10:13:00 PM 57.0131 -30.3387 94° East  Level FlightAware Approximate
Fri 10:14:00 PM 57.0038 -30.0960 94° East  Level FlightAware Approximate
Fri 10:15:00 PM 56.9781 -29.8587 106° East  Level FlightAware Approximate
Fri 10:16:00 PM 56.9414 -29.6252 106° East  Level FlightAware Approximate
Fri 10:17:00 PM 56.9043 -29.3922 106° East  Level FlightAware Approximate
Fri 10:18:00 PM 56.8668 -29.1596 106° East  Level FlightAware Approximate
Fri 10:19:00 PM 56.8289 -28.9275 107° East  Level FlightAware Approximate
Fri 10:20:00 PM 56.7905 -28.6958 107° East  Level FlightAware Approximate
Fri 10:21:00 PM 56.7517 -28.4647 107° East  Level FlightAware Approximate
Fri 10:22:00 PM 56.7125 -28.2340 107° East  Level FlightAware Approximate
Fri 10:23:00 PM 56.6728 -28.0038 107° East  Level FlightAware Approximate
Fri 10:24:00 PM 56.6327 -27.7741 108° East  Level FlightAware Approximate
Fri 10:25:00 PM 56.5922 -27.5448 108° East  Level FlightAware Approximate
Fri 10:26:00 PM 56.5513 -27.3161 108° East  Level FlightAware Approximate
Fri 10:27:00 PM 56.5100 -27.0879 108° East  Level FlightAware Approximate
Fri 10:28:00 PM 56.4691 -26.8596 108° East  Level FlightAware Approximate
Fri 10:29:00 PM 56.4282 -26.6316 108° East  Level FlightAware Approximate
Fri 10:30:00 PM 56.3868 -26.4041 108° East  Level FlightAware Approximate
Fri 10:31:00 PM 56.3450 -26.1772 108° East  Level FlightAware Approximate
Fri 10:32:00 PM 56.3028 -25.9507 108° East  Level FlightAware Approximate
Fri 10:33:00 PM 56.2602 -25.7247 109° East  Level FlightAware Approximate
Fri 10:34:00 PM 56.2173 -25.4992 109° East  Level FlightAware Approximate
Fri 10:35:00 PM 56.1740 -25.2741 109° East  Level FlightAware Approximate
Fri 10:36:00 PM 56.1304 -25.0495 109° East  Level FlightAware Approximate
Fri 10:37:00 PM 56.0863 -24.8255 109° East  Level FlightAware Approximate
Fri 10:38:00 PM 56.0418 -24.6019 110° East  Level FlightAware Approximate
Fri 10:39:00 PM 55.9970 -24.3789 110° East  Level FlightAware Approximate
Fri 10:40:00 PM 55.9517 -24.1564 110° East  Level FlightAware Approximate
Fri 10:41:00 PM 55.9060 -23.9344 110° East  Level FlightAware Approximate
Fri 10:42:00 PM 55.8599 -23.7129 110° East  Level FlightAware Approximate
Fri 10:43:00 PM 55.8135 -23.4920 110° East  Level FlightAware Approximate
Fri 10:44:00 PM 55.7666 -23.2716 111° Southeast  Level FlightAware Approximate
Fri 10:45:00 PM 55.7193 -23.0517 111° Southeast  Level FlightAware Approximate
Fri 10:46:00 PM 55.6717 -22.8324 111° Southeast  Level FlightAware Approximate
Fri 10:47:00 PM 55.6233 -22.6138 112° Southeast  Level FlightAware Approximate
Fri 10:48:00 PM 55.5742 -22.3960 112° Southeast  Level FlightAware Approximate
Fri 10:49:00 PM 55.5247 -22.1787 112° Southeast  Level FlightAware Approximate
Fri 10:50:00 PM 55.4749 -21.9620 112° Southeast  Level FlightAware Approximate
Fri 10:51:00 PM 55.4246 -21.7459 112° Southeast  Level FlightAware Approximate
Fri 10:52:00 PM 55.3740 -21.5303 112° Southeast  Level FlightAware Approximate
Fri 10:53:00 PM 55.3231 -21.3152 113° Southeast  Level FlightAware Approximate
Fri 10:54:00 PM 55.2717 -21.1007 113° Southeast  Level FlightAware Approximate
Fri 10:55:00 PM 55.2199 -20.8867 113° Southeast  Level FlightAware Approximate
Fri 10:56:00 PM 55.1678 -20.6734 113° Southeast  Level FlightAware Approximate
Fri 10:57:00 PM 55.1153 -20.4605 113° Southeast  Level FlightAware Approximate
Fri 10:58:00 PM 55.0625 -20.2483 113° Southeast  Level FlightAware Approximate
Fri 10:59:00 PM 55.0092 -20.0366 114° Southeast  Level FlightAware Approximate
Fri 11:00:00 PM 54.9750 -19.8141 103° East  Level FlightAware Approximate
Fri 11:01:00 PM 54.9444 -19.5896 103° East  Level FlightAware Approximate
Fri 11:02:00 PM 54.9134 -19.3654 103° East  Level FlightAware Approximate
Fri 11:03:00 PM 54.8820 -19.1416 104° East  Level FlightAware Approximate
Fri 11:04:00 PM 54.8501 -18.9181 104° East  Level FlightAware Approximate
Fri 11:05:00 PM 54.8179 -18.6950 104° East  Level FlightAware Approximate
Fri 11:06:00 PM 54.7852 -18.4722 104° East  Level FlightAware Approximate
Fri 11:07:00 PM 54.7522 -18.2498 104° East  Level FlightAware Approximate
Fri 11:08:00 PM 54.7187 -18.0278 105° East  Level FlightAware Approximate
Fri 11:09:00 PM 54.6848 -17.8062 105° East  Level FlightAware Approximate
Fri 11:09:51 PM 53.8480 -13.9280 105° East 509 586 35,000  Level FlightAware ADS-B
Fri 11:10:00 PM 54.6505 -17.5849 105° East  Level FlightAware Approximate
Fri 11:10:21 PM 53.8350 -13.8290 103° East 509 586 35,000  Level FlightAware ADS-B
Fri 11:11:06 PM 53.8090 -13.6630 105° East 509 586 35,000  Level FlightAware ADS-B
Fri 11:12:16 PM 53.7640 -13.3790 105° East 511 588 35,000  Level FlightAware ADS-B
Fri 11:14:00 PM 53.6881 -13.0127 109° East  Level Estimated
Fri 11:15:00 PM 53.6438 -12.8019 109° East  Level Estimated
Fri 11:15:51 PM 53.6330 -12.5460 109° East 511 588 35,000  Level FlightAware ADS-B
Fri 11:17:01 PM 53.5890 -12.2750 105° East 518 596 35,900 1,043 Climbing FlightAware ADS-B
Fri 11:17:46 PM 53.5600 -12.0980 105° East 500 575 37,000 776 Climbing FlightAware ADS-B
Fri 11:18:26 PM 53.5360 -11.9520 105° East 488 562 37,000  Level FlightAware ADS-B
Fri 11:19:06 PM 53.5110 -11.8060 106° East 494 568 37,000  Level FlightAware ADS-B
Fri 11:19:51 PM 53.4830 -11.6360 105° East 501 577 37,000  Level FlightAware ADS-B
Fri 11:20:31 PM 53.4570 -11.4840 106° East 506 582 37,000  Level FlightAware ADS-B
Fri 11:21:16 PM 53.4270 -11.3100 106° East 514 592 37,000  Level FlightAware ADS-B
Fri 11:21:56 PM 53.4000 -11.1590 107° East 518 596 37,000  Level FlightAware ADS-B
Fri 11:22:31 PM 53.3770 -11.0240 106° East 519 597 37,000  Level FlightAware ADS-B
Fri 11:23:21 PM 53.3460 -10.8470 106° East 521 600 37,000  Level FlightAware ADS-B
Fri 11:24:01 PM 53.3150 -10.6740 107° East 523 602 37,000  Level FlightAware ADS-B
Fri 11:24:46 PM 53.2860 -10.5120 107° East 523 602 37,000  Level FlightAware ADS-B
Fri 11:25:26 PM 53.2570 -10.3540 107° East 519 597 37,000  Level FlightAware ADS-B
Fri 11:26:11 PM 53.2230 -10.1690 107° East 517 595 37,000  Level FlightAware ADS-B
Fri 11:26:51 PM 53.1980 -10.0320 107° East 516 594 37,000  Level FlightAware ADS-B
Fri 11:27:31 PM 53.1680 -9.8750 108° East 515 593 37,000  Level FlightAware ADS-B
Fri 11:28:16 PM 53.1360 -9.7010 107° East 513 590 37,000  Level FlightAware ADS-B
Fri 11:28:51 PM 53.1100 -9.5650 108° East 511 588 37,000  Level FlightAware ADS-B
Fri 11:29:41 PM 53.0740 -9.3780 108° East 508 585 37,000  Level FlightAware ADS-B
Fri 11:30:21 PM 53.0480 -9.2420 108° East 507 583 37,000  Level FlightAware ADS-B
Fri 11:30:56 PM 53.0210 -9.1040 108° East 505 581 37,000 -1,304 Level FlightAware ADS-B
Fri 11:31:30 PM 52.9932 -8.9629 108° East 470 541 35,500  Descending FlightAware UK
Fri 11:31:46 PM 52.9830 -8.9120 108° East 503 579 37,000 -333 Climbing FlightAware ADS-B
Fri 11:31:48 PM 52.9804 -8.8970 108° East 470 541 35,400 -4,500 Descending FlightAware UK
Fri 11:32:06 PM 52.9673 -8.8307 108° East 472 543 35,500 167 Climbing FlightAware UK
Fri 11:32:24 PM 52.9543 -8.7649 108° East 466 536 35,500 4,500 Level FlightAware UK
Fri 11:32:26 PM 52.9570 -8.7770 108° East 502 578 37,000  Climbing FlightAware ADS-B
Fri 11:32:42 PM 52.9412 -8.6992 108° East 468 539 35,500 -2,647 Descending FlightAware UK
Fri 11:33:00 PM 52.9281 -8.6325 108° East 464 534 35,500 3,103 Level FlightAware UK
Fri 11:33:11 PM 52.9210 -8.6000 108° East 500 575 37,000  Climbing FlightAware ADS-B
Fri 11:33:30 PM 52.9059 -8.5226 108° East 468 539 35,500 -2,432 Descending FlightAware UK
Fri 11:33:48 PM 52.8927 -8.4572 109° East 466 536 35,500 4,286 Level FlightAware UK
Fri 11:33:51 PM 52.8960 -8.4740 109° East 499 574 37,000  Climbing FlightAware ADS-B
Fri 11:34:06 PM 52.8795 -8.3918 109° East 466 536 35,500 -2,727 Descending FlightAware UK
Fri 11:34:24 PM 52.8661 -8.3264 109° East 468 539 35,500 3,600 Level FlightAware UK
Fri 11:34:31 PM 52.8640 -8.3130 109° East 499 574 37,000  Climbing FlightAware ADS-B
Fri 11:34:48 PM 52.8485 -8.2397 109° East 466 536 35,500 -2,571 Descending FlightAware UK
Fri 11:35:06 PM 52.8353 -8.1739 108° East 466 536 35,500 3,214 Level FlightAware UK
Fri 11:35:16 PM 52.8300 -8.1470 108° East 499 574 37,000  Climbing FlightAware ADS-B
Fri 11:35:36 PM 52.8134 -8.0655 108° East 466 536 35,500 -2,368 Descending FlightAware UK
Fri 11:35:54 PM 52.8000 -8.0009 109° East 464 534 35,500 4,500 Level FlightAware UK
Fri 11:35:56 PM 52.8000 -8.0020 109° East 499 574 37,000  Climbing FlightAware ADS-B
Fri 11:36:12 PM 52.7865 -7.9361 109° East 464 534 35,500 -2,647 Descending FlightAware UK
Fri 11:36:30 PM 52.7730 -7.8717 109° East 462 532 35,500 3,750 Level FlightAware UK
Fri 11:36:36 PM 52.7700 -7.8590 109° East 499 574 37,000  Climbing FlightAware ADS-B
Fri 11:36:54 PM 52.7550 -7.7859 109° East 466 536 35,500 -2,500 Descending FlightAware UK
Fri 11:37:12 PM 52.7416 -7.7212 109° East 468 539 35,500 3,333 Level FlightAware UK
Fri 11:37:21 PM 52.7370 -7.6980 109° East 498 573 37,000  Climbing FlightAware ADS-B
Fri 11:37:36 PM 52.7236 -7.6353 109° East 464 534 35,500 -2,727 Descending FlightAware UK
Fri 11:37:54 PM 52.7100 -7.5702 109° East 468 539 35,500 3,600 Level FlightAware UK
Fri 11:38:01 PM 52.7080 -7.5640 109° East 498 573 37,000  Climbing FlightAware ADS-B
Fri 11:38:18 PM 52.6919 -7.4851 109° East 468 539 35,500 -2,571 Descending FlightAware UK
Fri 11:38:36 PM 52.6783 -7.4209 109° East 470 541 35,500 3,214 Level FlightAware UK
Fri 11:38:46 PM 52.6720 -7.3920 109° East 497 572 37,000  Climbing FlightAware ADS-B
Fri 11:39:06 PM 52.6554 -7.3131 109° East 472 543 35,500 -2,368 Descending FlightAware UK
Fri 11:39:24 PM 52.6418 -7.2491 109° East 468 539 35,500 4,500 Level FlightAware UK
Fri 11:39:26 PM 52.6420 -7.2530 109° East 496 571 37,000  Climbing FlightAware ADS-B
Fri 11:39:42 PM 52.6280 -7.1853 109° East 466 536 35,500 -2,647 Descending FlightAware UK
Fri 11:40:00 PM 52.6144 -7.1213 109° East 468 539 35,500 3,750 Level FlightAware UK
Fri 11:40:06 PM 52.6120 -7.1120 109° East 496 571 37,000  Climbing FlightAware ADS-B
Fri 11:40:24 PM 52.5961 -7.0361 109° East 468 539 35,500 -2,500 Descending FlightAware UK
Fri 11:40:42 PM 52.5823 -6.9723 110° East 464 534 35,500 3,333 Level FlightAware UK
Fri 11:40:51 PM 52.5790 -6.9600 110° East 496 571 37,000  Climbing FlightAware ADS-B
Fri 11:41:06 PM 52.5638 -6.8873 110° East 464 534 35,500 -2,727 Descending FlightAware UK
Fri 11:41:24 PM 52.5499 -6.8236 110° East 466 536 35,500 4,500 Level FlightAware UK
Fri 11:41:26 PM 52.5520 -6.8350 110° East 494 568 37,000  Climbing FlightAware ADS-B
Fri 11:41:42 PM 52.5360 -6.7600 110° East 466 536 35,500 -2,571 Descending FlightAware UK
Fri 11:42:01 PM 52.5218 -6.6957 110° East 468 539 35,500 2,647 Level FlightAware UK
Fri 11:42:16 PM 52.5110 -6.6490 110° East 496 571 37,000  Climbing FlightAware ADS-B
Fri 11:42:18 PM 52.5079 -6.6328 110° East 478 550 35,500 -4,286 Descending FlightAware UK
Fri 11:42:37 PM 52.4936 -6.5686 110° East 464 534 35,500  Level FlightAware UK
Fri 11:42:55 PM 52.4795 -6.5043 110° East 468 539 35,500 4,737 Level FlightAware UK
Fri 11:42:56 PM 52.4820 -6.5160 110° East 495 570 37,000  Climbing FlightAware ADS-B
Fri 11:43:13 PM 52.4654 -6.4410 110° East 470 541 35,500 -2,571 Descending FlightAware UK
Fri 11:43:31 PM 52.4512 -6.3778 110° East 472 543 35,500 3,913 Level FlightAware UK
Fri 11:43:36 PM 52.4500 -6.3760 110° East 495 570 37,000  Climbing FlightAware ADS-B
Fri 11:43:55 PM 52.4322 -6.2936 110° East 476 548 35,500 -2,432 Descending FlightAware UK
Fri 11:44:13 PM 52.4181 -6.2305 110° East 472 543 35,500 3,462 Level FlightAware UK
Fri 11:44:21 PM 52.4130 -6.2100 110° East 495 570 37,000  Climbing FlightAware ADS-B
Fri 11:44:37 PM 52.3992 -6.1473 110° East 470 541 35,500 -2,647 Descending FlightAware UK
Fri 11:44:55 PM 52.3847 -6.0830 110° East 464 534 35,500 3,750 Level FlightAware UK
Fri 11:45:01 PM 52.3840 -6.0800 110° East 492 566 37,000  Climbing FlightAware ADS-B
Fri 11:45:19 PM 52.3661 -5.9996 110° East 464 534 35,500 -2,500 Descending FlightAware UK
Fri 11:45:37 PM 52.3517 -5.9367 110° East 464 534 35,500 4,091 Level FlightAware UK
Fri 11:45:41 PM 52.3520 -5.9380 110° East 492 566 37,000  Climbing FlightAware ADS-B
Fri 11:46:01 PM 52.3323 -5.8529 110° East 466 536 35,500 -2,368 Descending FlightAware UK
Fri 11:46:19 PM 52.3178 -5.7901 111° Southeast 468 539 35,500 3,600 Level FlightAware UK
Fri 11:46:26 PM 52.3150 -5.7790 111° Southeast 496 571 37,000  Climbing FlightAware ADS-B
Fri 11:46:43 PM 52.2983 -5.7063 111° Southeast 468 539 35,500 -2,571 Descending FlightAware UK
Fri 11:47:01 PM 52.2838 -5.6434 111° Southeast 470 541 35,500 3,913 Level FlightAware UK
Fri 11:47:06 PM 52.2820 -5.6370 111° Southeast 495 570 37,000  Climbing FlightAware ADS-B
Fri 11:47:25 PM 52.2642 -5.5590 111° Southeast 474 545 35,500  Descending FlightAware UK
Fri 11:47:41 PM 52.2550 -5.5180 111° Southeast 495 570 37,000  Climbing FlightAware ADS-B
Fri 11:47:43 PM 52.2497 -5.4962 111° Southeast 476 548 35,500 -4,500 Descending FlightAware UK
Fri 11:48:01 PM 52.2353 -5.4342 111° Southeast 472 543 35,500  Level FlightAware UK
Fri 11:48:19 PM 52.2205 -5.3710 111° Southeast 472 543 35,500 3,000 Level FlightAware UK
Fri 11:48:31 PM 52.2120 -5.3330 111° Southeast 494 568 37,000  Climbing FlightAware ADS-B
Fri 11:48:49 PM 52.1962 -5.2675 111° Southeast 472 543 35,500 -2,500 Descending FlightAware UK
Fri 11:49:07 PM 52.1815 -5.2050 111° Southeast 468 539 35,500 3,333 Level FlightAware UK
Fri 11:49:16 PM 52.1770 -5.1860 111° Southeast 495 570 37,000  Climbing FlightAware ADS-B
Fri 11:49:31 PM 52.1615 -5.1212 111° Southeast 468 539 35,500 -2,727 Descending FlightAware UK
Fri 11:49:49 PM 52.1467 -5.0588 111° Southeast 472 543 35,500 3,600 Level FlightAware UK
Fri 11:49:56 PM 52.1440 -5.0490 111° Southeast 495 570 37,000  Climbing FlightAware ADS-B
Fri 11:50:13 PM 52.1271 -4.9757 111° Southeast 470 541 35,500 -2,500 Descending FlightAware UK
Fri 11:50:32 PM 52.1117 -4.9113 111° Southeast 472 543 35,500 3,913 Level FlightAware UK
Fri 11:50:36 PM 52.1100 -4.9030 111° Southeast 495 570 37,000  Climbing FlightAware ADS-B
Fri 11:50:55 PM 52.0920 -4.8297 111° Southeast 472 543 35,500 -2,432 Descending FlightAware UK
Fri 11:51:13 PM 52.0771 -4.7675 111° Southeast 470 541 35,500 3,462 Level FlightAware UK
Fri 11:51:21 PM 52.0720 -4.7470 111° Southeast 495 570 37,000  Climbing FlightAware ADS-B
Fri 11:51:37 PM 52.0570 -4.6846 111° Southeast 466 536 35,500 -2,647 Descending FlightAware UK
Fri 11:51:55 PM 52.0419 -4.6224 112° Southeast 468 539 35,500 3,750 Level FlightAware UK
Fri 11:52:01 PM 52.0390 -4.6090 112° Southeast 496 571 37,000 6,923 Climbing FlightAware ADS-B
Fri 11:52:08 PM 52.0309 -4.5776 113° Southeast 497 572 37,000 -3,750 Level FlightAware ADS-B
Fri 11:52:25 PM 52.0165 -4.5181 113° Southeast 466 536 35,500  Descending FlightAware UK
Fri 11:52:42 PM 52.0027 -4.4623 113° Southeast 496 571 37,000  Climbing FlightAware ADS-B
Fri 11:53:01 PM 51.9862 -4.3938 113° Southeast 466 536 35,500  Descending FlightAware UK
Fri 11:53:19 PM 51.9709 -4.3324 113° Southeast 497 572 37,000  Climbing FlightAware ADS-B
Fri 11:53:37 PM 51.9555 -4.2695 113° Southeast 470 541 35,500  Descending FlightAware UK
Fri 11:53:51 PM 51.9435 -4.2216 113° Southeast 498 573 37,000  Climbing FlightAware ADS-B
Fri 11:54:07 PM 51.9299 -4.1659 113° Southeast 468 539 35,500  Descending FlightAware UK
Fri 11:54:23 PM 51.9164 -4.1117 113° Southeast 499 574 37,000  Climbing FlightAware ADS-B
Fri 11:54:43 PM 51.8990 -4.0415 113° Southeast 470 541 35,500  Descending FlightAware UK
Fri 11:55:00 PM 51.8847 -3.9843 113° Southeast 499 574 37,000  Climbing FlightAware ADS-B
Fri 11:55:20 PM 51.8678 -3.9164 113° Southeast 470 541 35,500  Descending FlightAware UK
Fri 11:55:31 PM 51.8600 -3.8850 113° Southeast 500 575 37,000  Climbing FlightAware ADS-B
Fri 11:55:50 PM 51.8418 -3.8129 113° Southeast 476 548 35,500  Descending FlightAware UK
Fri 11:55:52 PM 51.8400 -3.8062 113° Southeast 500 575 37,000  Climbing FlightAware ADS-B
Fri 11:56:08 PM 51.8260 -3.7508 113° Southeast 476 548 35,500  Descending FlightAware UK
Fri 11:56:22 PM 51.8138 -3.7022 113° Southeast 501 577 37,000  Climbing FlightAware ADS-B
Fri 11:56:38 PM 51.7999 -3.6472 113° Southeast 474 545 35,500  Descending FlightAware UK
Fri 11:56:52 PM 51.7875 -3.5985 113° Southeast 500 575 37,000  Climbing FlightAware ADS-B
Fri 11:57:08 PM 51.7736 -3.5439 113° Southeast 472 543 35,500  Descending FlightAware UK
Fri 11:57:22 PM 51.7610 -3.4950 113° Southeast 500 575 37,000  Climbing FlightAware ADS-B
Fri 11:57:38 PM 51.7470 -3.4394 113° Southeast 472 543 35,500  Descending FlightAware UK
Fri 11:57:53 PM 51.7337 -3.3885 113° Southeast 500 575 37,000 -200 Climbing FlightAware ADS-B
Fri 11:58:08 PM 51.7206 -3.3371 113° Southeast 472 543 35,400  Descending FlightAware UK
Fri 11:58:24 PM 51.7066 -3.2831 113° Southeast 499 574 37,000 167 Climbing FlightAware ADS-B
Fri 11:58:44 PM 51.6886 -3.2130 113° Southeast 474 545 35,500  Descending FlightAware UK
Fri 11:58:54 PM 51.6798 -3.1794 113° Southeast 500 575 37,000  Climbing FlightAware ADS-B
Fri 11:59:14 PM 51.6622 -3.1110 113° Southeast 472 543 35,500  Descending FlightAware UK
Fri 11:59:25 PM 51.6526 -3.0743 113° Southeast 500 575 37,000  Climbing FlightAware ADS-B
Fri 11:59:44 PM 51.6350 -3.0071 113° Southeast 474 545 35,500  Descending FlightAware UK
Fri 11:59:55 PM 51.6253 -2.9697 113° Southeast 500 575 37,000  Climbing FlightAware ADS-B
Sat 12:00:14 AM 51.6082 -2.9039 113° Southeast 474 545 35,500  Descending FlightAware UK
Sat 12:00:26 AM 51.5982 -2.8662 113° Southeast 500 575 37,000  Climbing FlightAware ADS-B
Sat 12:00:44 AM 51.5815 -2.8021 113° Southeast 476 548 35,500  Descending FlightAware UK
Sat 12:00:56 AM 51.5713 -2.7639 113° Southeast 499 574 37,000  Climbing FlightAware ADS-B
Sat 12:01:14 AM 51.5543 -2.6993 113° Southeast 478 550 35,500  Descending FlightAware UK
Sat 12:01:26 AM 51.5438 -2.6602 113° Southeast 499 574 37,000  Climbing FlightAware ADS-B
Sat 12:01:45 AM 51.5270 -2.5968 113° Southeast 476 548 35,500  Descending FlightAware UK
Sat 12:01:57 AM 51.5164 -2.5567 113° Southeast 498 573 37,000  Climbing FlightAware ADS-B
Sat 12:02:14 AM 51.5003 -2.4965 113° Southeast 474 545 35,500  Descending FlightAware UK
Sat 12:02:27 AM 51.4888 -2.4535 113° Southeast 498 573 37,000  Climbing FlightAware ADS-B
Sat 12:02:45 AM 51.4730 -2.3937 113° Southeast 476 548 35,500  Descending FlightAware UK
Sat 12:02:58 AM 51.4610 -2.3495 113° Southeast 496 571 37,000  Climbing FlightAware ADS-B
Sat 12:03:14 AM 51.4461 -2.2932 113° Southeast 472 543 35,500  Descending FlightAware UK
Sat 12:03:29 AM 51.4330 -2.2456 113° Southeast 496 571 37,000  Climbing FlightAware ADS-B
Sat 12:03:45 AM 51.4185 -2.1918 113° Southeast 474 545 35,500  Descending FlightAware UK
Sat 12:04:00 AM 51.4049 -2.1418 113° Southeast 496 571 37,000  Climbing FlightAware ADS-B
Sat 12:04:15 AM 51.3913 -2.0913 113° Southeast 478 550 35,500  Descending FlightAware UK
Sat 12:04:30 AM 51.3770 -2.0390 113° Southeast 494 568 37,000  Climbing FlightAware ADS-B
Sat 12:04:45 AM 51.3640 -1.9909 113° Southeast 478 550 35,500  Descending FlightAware UK
Sat 12:05:01 AM 51.3496 -1.9387 113° Southeast 493 567 37,000  Climbing FlightAware ADS-B
Sat 12:05:21 AM 51.3308 -1.8698 113° Southeast 476 548 35,500  Descending FlightAware UK
Sat 12:05:32 AM 51.3214 -1.8358 113° Southeast 492 566 37,000  Climbing FlightAware ADS-B
Sat 12:05:51 AM 51.3035 -1.7705 113° Southeast 474 545 35,500  Descending FlightAware UK
Sat 12:06:02 AM 51.2940 -1.7361 113° Southeast 490 564 37,000  Climbing FlightAware ADS-B
Sat 12:06:21 AM 51.2764 -1.6721 113° Southeast 468 539 35,500  Descending FlightAware UK
Sat 12:06:32 AM 51.2664 -1.6361 113° Southeast 490 564 37,000 -200 Climbing FlightAware ADS-B
Sat 12:06:51 AM 51.2490 -1.5733 113° Southeast 466 536 35,400  Descending FlightAware UK
Sat 12:07:02 AM 51.2388 -1.5369 113° Southeast 490 564 37,000  Climbing FlightAware ADS-B
Sat 12:07:21 AM 51.2215 -1.4745 113° Southeast 470 541 35,400  Descending FlightAware UK
Sat 12:07:32 AM 51.2111 -1.4376 113° Southeast 489 563 37,000 200 Climbing FlightAware ADS-B
Sat 12:07:51 AM 51.1938 -1.3754 113° Southeast 472 543 35,500  Descending FlightAware UK
Sat 12:08:02 AM 51.1835 -1.3389 113° Southeast 489 563 37,000  Climbing FlightAware ADS-B
Sat 12:08:21 AM 51.1661 -1.2763 113° Southeast 470 541 35,500  Descending FlightAware UK
Sat 12:08:33 AM 51.1554 -1.2389 113° Southeast 488 562 37,000  Climbing FlightAware ADS-B
Sat 12:08:51 AM 51.1385 -1.1789 113° Southeast 468 539 35,500  Descending FlightAware UK
Sat 12:09:03 AM 51.1277 -1.1407 113° Southeast 489 563 37,000  Climbing FlightAware ADS-B
Sat 12:09:21 AM 51.1109 -1.0814 113° Southeast 472 543 35,500  Descending FlightAware UK
Sat 12:09:33 AM 51.0996 -1.0416 113° Southeast 489 563 37,000 -200 Climbing FlightAware ADS-B
Sat 12:09:51 AM 51.0826 -0.9822 113° Southeast 472 543 35,400  Descending FlightAware UK
Sat 12:10:04 AM 51.0710 -0.9419 113° Southeast 489 563 37,000 200 Climbing FlightAware ADS-B
Sat 12:10:21 AM 51.0547 -0.8843 113° Southeast 472 543 35,500  Descending FlightAware UK
Sat 12:10:34 AM 51.0432 -0.8440 113° Southeast 489 563 37,000  Climbing FlightAware ADS-B
Sat 12:10:51 AM 51.0269 -0.7864 113° Southeast 468 539 35,500 -400 Descending FlightAware UK
Sat 12:11:04 AM 51.0148 -0.7451 113° Southeast 494 568 36,800 -968 Climbing FlightAware ADS-B
Sat 12:11:22 AM 50.9981 -0.6871 113° Southeast 474 545 35,000 -1,200 Descending FlightAware UK
Sat 12:11:34 AM 50.9858 -0.6448 113° Southeast 498 573 36,200 -1,400 Climbing FlightAware ADS-B
Sat 12:11:52 AM 50.9673 -0.5888 113° Southeast 472 543 34,300 -1,355 Descending FlightAware UK
Sat 12:12:05 AM 50.9516 -0.5475 113° Southeast 492 566 35,500 -1,400 Climbing FlightAware ADS-B
Sat 12:12:22 AM 50.9310 -0.4979 113° Southeast 472 543 33,600 -1,250 Descending FlightAware UK
Sat 12:12:29 AM 50.9210 -0.4769 113° Southeast 490 564 35,000 -1,565 Climbing FlightAware ADS-B
Sat 12:12:45 AM 50.8981 -0.4309 113° Southeast 472 543 33,000 -1,400 Descending FlightAware UK
Sat 12:12:59 AM 50.8791 -0.3929 113° Southeast 486 559 34,300 -1,400 Climbing FlightAware ADS-B
Sat 12:13:15 AM 50.8566 -0.3475 113° Southeast 464 534 32,300 -1,355 Descending FlightAware UK
Sat 12:13:30 AM 50.8370 -0.3084 113° Southeast 487 560 33,600 -1,161 Climbing FlightAware ADS-B
Sat 12:13:46 AM 50.8146 -0.2634 113° Southeast 466 536 31,700 -1,600 Descending FlightAware UK
Sat 12:14:00 AM 50.7937 -0.2220 113° Southeast 493 567 32,800 2,857 Climbing FlightAware ADS-B
Sat 12:14:07 AM 50.7847 -0.2043 129° Southeast 493 567 32,700 -4,714 Descending FlightAware ADS-B
Sat 12:14:28 AM 50.7549 -0.1449 129° Southeast 476 548 30,600 -1,500 Descending FlightAware UK
Sat 12:14:31 AM 50.7496 -0.1352 129° Southeast 493 567 32,100 7,091 Climbing FlightAware ADS-B
Sat 12:14:39 AM 50.7384 -0.1131 129° Southeast 493 567 31,900 -5,308 Descending FlightAware ADS-B
Sat 12:14:57 AM 50.7127 -0.0624 129° Southeast 472 543 29,800 -1,565 Descending FlightAware UK
Sat 12:15:02 AM 50.7067 -0.0508 129° Southeast 483 556 31,300 4,500 Climbing FlightAware ADS-B
Sat 12:15:13 AM 50.6908 -0.0191 128° Southeast 483 556 31,000 -5,308 Descending FlightAware ADS-B
Sat 12:15:28 AM 50.6710 0.0205 128° Southeast 474 545 29,000 -1,579 Descending FlightAware UK
Sat 12:15:32 AM 50.6649 0.0323 128° Southeast 482 555 30,500 4,500 Climbing FlightAware ADS-B
Sat 12:15:44 AM 50.6484 0.0647 129° Southeast 479 551 30,200 -1,548 Descending FlightAware ADS-B
Sat 12:16:03 AM 50.6231 0.1145 129° Southeast 473 544 29,700 -1,742 Descending FlightAware ADS-B
Sat 12:16:15 AM 50.6065 0.1467 129° Southeast 471 542 29,300 -4,800 Descending FlightAware ADS-B
Sat 12:16:33 AM 50.5808 0.1970 129° Southeast 458 527 27,300 -1,579 Descending FlightAware UK
Sat 12:16:34 AM 50.5809 0.1970 129° Southeast 466 536 28,800 7,091 Climbing FlightAware ADS-B
Sat 12:16:44 AM 50.5664 0.2254 129° Southeast 464 534 28,600 -4,600 Descending FlightAware ADS-B
Sat 12:17:04 AM 50.5402 0.2761 129° Southeast 452 520 26,500 -1,800 Descending FlightAware UK
Sat 12:17:04 AM 50.5405 0.2755 129° Southeast 459 528 28,000 6,545 Climbing FlightAware ADS-B
Sat 12:17:15 AM 50.5252 0.3050 129° Southeast 456 525 27,700 -1,400 Descending FlightAware ADS-B
Sat 12:17:34 AM 50.5006 0.3537 128° Southeast 453 521 27,300 -1,355 Descending FlightAware ADS-B
Sat 12:17:46 AM 50.4854 0.3831 129° Southeast 449 517 27,000 -4,800 Descending FlightAware ADS-B
Sat 12:18:04 AM 50.4617 0.4295 129° Southeast 440 506 24,900 -1,579 Descending FlightAware UK
Sat 12:18:05 AM 50.4604 0.4317 129° Southeast 442 509 26,500 6,000 Climbing FlightAware ADS-B
Sat 12:18:17 AM 50.4454 0.4606 129° Southeast 437 503 26,200 -1,429 Descending FlightAware ADS-B
Sat 12:18:26 AM 50.4329 0.4827 132° Southeast 426 490 26,000 -3,517 Descending FlightAware ADS-B
Sat 12:18:46 AM 50.4057 0.5254 132° Southeast 434 499 24,500  Descending FlightAware UK
Sat 12:18:51 AM 50.3992 0.5346 132° Southeast 415 478 26,000 6,000 Climbing FlightAware ADS-B
Sat 12:19:01 AM 50.3842 0.5549 139° Southeast 424 488 26,000  Level FlightAware ADS-B
Sat 12:19:14 AM 50.3655 0.5777 142° Southeast 407 468 26,000  Level FlightAware ADS-B
Sat 12:19:18 AM 50.3591 0.5850 144° Southeast 406 467 26,000 -4,500 Level FlightAware ADS-B
Sat 12:19:34 AM 50.3347 0.6124 144° Southeast 434 499 24,500  Descending FlightAware UK
Sat 12:19:51 AM 50.3092 0.6413 144° Southeast 405 466 26,000 3,214 Climbing FlightAware ADS-B
Sat 12:20:02 AM 50.2923 0.6601 145° Southeast 406 467 26,000  Level FlightAware ADS-B
Sat 12:20:21 AM 50.2634 0.6924 144° Southeast 407 468 26,000 -2,368 Level FlightAware ADS-B
Sat 12:20:40 AM 50.2342 0.7249 144° Southeast 434 499 24,500  Descending FlightAware UK
Sat 12:20:56 AM 50.2097 0.7523 144° Southeast 410 472 26,000  Climbing FlightAware ADS-B
Sat 12:21:15 AM 50.1794 0.7862 144° Southeast 434 499 24,500  Descending FlightAware UK
Sat 12:21:26 AM 50.1639 0.8037 144° Southeast 408 470 26,000  Climbing FlightAware ADS-B
Sat 12:21:45 AM 50.1333 0.8378 144° Southeast 430 495 24,500  Descending FlightAware UK
Sat 12:21:56 AM 50.1169 0.8563 144° Southeast 409 471 26,000  Climbing FlightAware ADS-B
Sat 12:22:15 AM 50.0871 0.8896 144° Southeast 430 495 24,500  Descending FlightAware UK
Sat 12:22:26 AM 50.0703 0.9083 144° Southeast 410 472 26,000  Climbing FlightAware ADS-B
Sat 12:22:45 AM 50.0412 0.9405 144° Southeast 432 497 24,500  Descending FlightAware UK
Sat 12:22:57 AM 50.0230 0.9608 144° Southeast 412 474 26,000  Climbing FlightAware ADS-B
Sat 12:23:15 AM 49.9945 0.9923 144° Southeast 434 499 24,500 -200 Descending FlightAware UK
Sat 12:23:27 AM 49.9763 1.0127 144° Southeast 417 480 25,900 -1,000 Climbing FlightAware ADS-B
Sat 12:23:45 AM 49.9476 1.0445 144° Southeast 446 513 24,000 -1,455 Descending FlightAware UK
Sat 12:24:00 AM 49.9257 1.0685 144° Southeast 405 466 25,100 -1,742 Climbing FlightAware ADS-B
Sat 12:24:16 AM 49.9012 1.0959 144° Southeast 426 490 23,100 -5,091 Descending FlightAware UK
Sat 12:24:33 AM 49.8752 1.1245 145° Southeast 418 481 22,300 -2,743 Descending FlightAware UK
Sat 12:24:51 AM 49.8489 1.1536 144° Southeast 416 479 21,500 -2,432 Descending FlightAware UK
Sat 12:25:10 AM 49.8224 1.1828 145° Southeast 410 472 20,800 2,700 Descending FlightAware UK
Sat 12:25:11 AM 49.8240 1.1810 145° Southeast 384 442 22,400 10,286 Climbing FlightAware ADS-B
Sat 12:25:17 AM 49.8117 1.1942 145° Southeast 386 444 22,000 -6,783 Descending FlightAware ADS-B
Sat 12:25:34 AM 49.7877 1.2207 145° Southeast 404 465 19,800 -2,600 Descending FlightAware UK
Sat 12:25:47 AM 49.7681 1.2419 145° Southeast 380 437 20,700 -2,400 Climbing FlightAware ADS-B
Sat 12:26:04 AM 49.7447 1.2677 145° Southeast 396 456 18,600 -1,800 Descending FlightAware UK
Sat 12:26:17 AM 49.7255 1.2884 145° Southeast 375 432 19,800 -1,862 Climbing FlightAware ADS-B
Sat 12:26:33 AM 49.7024 1.3136 145° Southeast 394 453 17,700 -4,629 Descending FlightAware UK
Sat 12:26:52 AM 49.6769 1.3415 145° Southeast 392 451 17,100 -1,946 Descending FlightAware UK
Sat 12:27:10 AM 49.6520 1.3692 144° Southeast 386 444 16,500 2,000 Descending FlightAware UK
Sat 12:27:16 AM 49.6480 1.3730 144° Southeast 366 421 17,900 -2,000 Climbing FlightAware ADS-B
Sat 12:27:34 AM 49.6191 1.4048 144° Southeast 382 440 15,700 -4,667 Descending FlightAware UK
Sat 12:27:52 AM 49.5943 1.4320 145° Southeast 380 437 15,100 2,455 Descending FlightAware UK
Sat 12:27:56 AM 49.5930 1.4330 145° Southeast 365 420 16,600 -2,348 Climbing FlightAware ADS-B
Sat 12:28:15 AM 49.5613 1.4673 145° Southeast 376 433 14,200 -2,348 Descending FlightAware UK
Sat 12:28:19 AM 49.5571 1.4717 145° Southeast 364 419 15,700 -1,895 Climbing FlightAware ADS-B
Sat 12:28:34 AM 49.5362 1.4943 145° Southeast 376 433 13,600 -2,129 Descending FlightAware UK
Sat 12:28:50 AM 49.5148 1.5176 145° Southeast 362 417 14,600 -2,229 Climbing FlightAware ADS-B
Sat 12:29:09 AM 49.4873 1.5475 145° Southeast 374 430 12,300 -2,200 Descending FlightAware UK
Sat 12:29:20 AM 49.4735 1.5621 145° Southeast 360 414 13,500 -1,800 Climbing FlightAware ADS-B
Sat 12:29:39 AM 49.4463 1.5916 145° Southeast 364 419 11,400 -1,400 Descending FlightAware UK
Sat 12:29:50 AM 49.4328 1.6062 145° Southeast 348 400 12,800 -968 Climbing FlightAware ADS-B
Sat 12:30:10 AM 49.4077 1.6338 145° Southeast 348 400 10,900 -968 Descending FlightAware UK
Sat 12:30:21 AM 49.3934 1.6482 145° Southeast 330 380 12,300 -800 Climbing FlightAware ADS-B
Sat 12:30:40 AM 49.3703 1.6739 145° Southeast 330 380 10,500 -800 Descending FlightAware UK
Sat 12:30:51 AM 49.3566 1.6878 145° Southeast 324 373 11,900 -800 Climbing FlightAware ADS-B
Sat 12:31:10 AM 49.3333 1.7129 145° Southeast 332 382 10,100 -800 Descending FlightAware UK
Sat 12:31:21 AM 49.3198 1.7271 145° Southeast 317 365 11,500 4,333 Climbing FlightAware ADS-B
Sat 12:31:28 AM 49.3119 1.7364 142° Southeast 318 366 11,400 -800 Descending FlightAware ADS-B
Sat 12:31:36 AM 49.3037 1.7493 134° Southeast 323 372 11,300 -1,000 Descending FlightAware ADS-B
Sat 12:31:40 AM 49.3001 1.7569 126° Southeast 326 375 11,200 -750 Descending FlightAware ADS-B
Sat 12:31:44 AM 49.2971 1.7654 118° Southeast 329 379 11,200 -667 Level FlightAware ADS-B
Sat 12:31:49 AM 49.2940 1.7764 113° Southeast 332 382 11,100 -600 Descending FlightAware ADS-B
Sat 12:31:54 AM 49.2917 1.7879 107° East 336 387 11,100 -600 Level FlightAware ADS-B
Sat 12:31:59 AM 49.2903 1.7985 101° East 341 392 11,000 -4,636 Descending FlightAware ADS-B
Sat 12:32:16 AM 49.2879 1.8393 101° East 328 377 9,400  Descending FlightAware UK
Sat 12:32:25 AM 49.2865 1.8625 101° East 350 403 11,000  Climbing FlightAware ADS-B
Sat 12:32:40 AM 49.2834 1.8964 101° East 326 375 9,400  Descending FlightAware UK
Sat 12:32:55 AM 49.2832 1.9368 101° East 350 403 11,000  Climbing FlightAware ADS-B
Sat 12:33:10 AM 49.2815 1.9734 101° East 324 373 9,400  Descending FlightAware UK
Sat 12:33:26 AM 49.2800 2.0114 101° East 348 400 11,000  Climbing FlightAware ADS-B
Sat 12:33:46 AM 49.2779 2.0615 101° East 1 1 9,400  Descending FlightAware UK
Sat 12:33:59 AM 49.2764 2.0933 101° East 351 404 11,000  Climbing FlightAware ADS-B
Sat 12:34:16 AM 49.2746 2.1352 101° East 328 377 9,400  Descending FlightAware UK
Sat 12:34:29 AM 49.2728 2.1670 101° East 336 387 11,000 2,233 Climbing FlightAware ADS-B
Sat 12:34:59 AM 49.2695 2.2352 94° East 309 356 11,000  Level FlightAware ADS-B
Sat 12:35:30 AM 49.2662 2.2987 95° East 285 328 11,000  Level FlightAware ADS-B
Sat 12:36:00 AM 49.2632 2.3581 94° East 277 319 11,000  Level FlightAware ADS-B
Sat 12:36:31 AM 49.2601 2.4173 95° East 275 316 11,000 -484 Level FlightAware ADS-B
Sat 12:37:02 AM 49.2571 2.4773 94° East 269 310 10,500 -1,091 Descending FlightAware ADS-B
Sat 12:37:15 AM 49.2558 2.5016 95° East 267 307 10,200 -1,565 Descending FlightAware ADS-B
Sat 12:37:25 AM 49.2543 2.5209 97° East 266 306 9,900 -1,765 Descending FlightAware ADS-B
Sat 12:37:32 AM 49.2530 2.5337 99° East 267 307 9,700 -1,800 Descending FlightAware ADS-B
Sat 12:37:45 AM 49.2496 2.5571 103° East 265 305 9,300 -1,920 Descending FlightAware ADS-B
Sat 12:37:57 AM 49.2460 2.5793 104° East 265 305 8,900 -2,000 Descending FlightAware ADS-B
Sat 12:38:12 AM 49.2410 2.6064 106° East 265 305 8,400 -1,742 Descending FlightAware ADS-B
Sat 12:38:28 AM 49.2355 2.6357 106° East 264 304 8,000 -750 Descending FlightAware ADS-B
Sat 12:38:44 AM 49.2304 2.6626 106° East 266 306 8,000  Level FlightAware ADS-B
Sat 12:39:00 AM 49.2249 2.6917 106° East 266 306 8,000  Level FlightAware ADS-B
Sat 12:39:15 AM 49.2197 2.7193 106° East 268 308 8,000 -200 Level FlightAware ADS-B
Sat 12:39:30 AM 49.2144 2.7471 106° East 267 307 7,900 -774 Descending FlightAware ADS-B
Sat 12:39:46 AM 49.2091 2.7749 106° East 261 300 7,600 -1,227 Descending FlightAware ADS-B
Sat 12:40:14 AM 49.1998 2.8234 106° East 255 293 7,000 -818 Descending FlightAware ADS-B
Sat 12:40:30 AM 49.1943 2.8518 106° East 263 303 7,000 -563 Level FlightAware ADS-B
Sat 12:40:46 AM 49.1890 2.8798 106° East 259 298 6,700 -1,355 Descending FlightAware ADS-B
Sat 12:41:01 AM 49.1839 2.9068 106° East 253 291 6,300 -1,385 Descending FlightAware ADS-B
Sat 12:41:12 AM 49.1804 2.9255 106° East 249 287 6,100 -1,200 Descending FlightAware ADS-B
Sat 12:41:16 AM 49.1789 2.9311 112° Southeast 247 284 6,000 -667 Descending FlightAware ADS-B
Sat 12:41:21 AM 49.1761 2.9383 121° Southeast 242 278 6,000  Level FlightAware ADS-B
Sat 12:41:26 AM 49.1719 2.9457 131° Southeast 234 269 6,000  Level FlightAware ADS-B
Sat 12:41:30 AM 49.1689 2.9494 141° Southeast 230 265 6,000  Level FlightAware ADS-B
Sat 12:41:33 AM 49.1660 2.9521 148° Southeast 229 264 6,000  Level FlightAware ADS-B
Sat 12:41:39 AM 49.1610 2.9563 152° Southeast 228 262 6,000  Level FlightAware ADS-B
Sat 12:41:52 AM 49.1484 2.9657 154° Southeast 229 264 6,000  Level FlightAware ADS-B
Sat 12:42:07 AM 49.1338 2.9765 154° Southeast 228 262 6,000 -194 Level FlightAware ADS-B
Sat 12:42:23 AM 49.1195 2.9874 153° Southeast 223 257 5,900 -889 Descending FlightAware ADS-B
Sat 12:42:34 AM 49.1087 2.9955 154° Southeast 220 253 5,600 -1,500 Descending FlightAware ADS-B
Sat 12:42:43 AM 49.1011 3.0010 155° Southeast 220 253 5,400 -1,412 Descending FlightAware ADS-B
Sat 12:42:51 AM 49.0934 3.0041 165° South 215 247 5,200 -1,200 Descending FlightAware ADS-B
Sat 12:42:58 AM 49.0864 3.0035 183° South 212 244 5,100 -1,000 Descending FlightAware ADS-B
Sat 12:43:03 AM 49.0819 3.0012 198° South 210 242 5,000 -750 Descending FlightAware ADS-B
Sat 12:43:14 AM 49.0736 2.9920 216° Southwest 198 228 4,900  Descending FlightAware ADS-B
Sat 12:43:21 AM 49.0690 2.9843 228° Southwest 196 226 5,000  Climbing FlightAware ADS-B
Sat 12:43:37 AM 49.0598 2.9681 229° Southwest 195 224 4,900 -240 Descending FlightAware ADS-B
Sat 12:43:46 AM 49.0542 2.9583 229° Southwest 194 223 4,900  Level FlightAware ADS-B
Sat 12:43:51 AM 49.0514 2.9529 231° Southwest 194 223 4,900  Level FlightAware ADS-B
Sat 12:44:10 AM 49.0456 2.9294 249° West 194 223 4,900  Level FlightAware ADS-B
Sat 12:44:13 AM 49.0452 2.9249 262° West 189 217 4,900  Level FlightAware ADS-B
Sat 12:44:28 AM 49.0447 2.9060 268° West 178 205 4,900 -286 Level FlightAware ADS-B
Sat 12:44:34 AM 49.0444 2.8985 267° West 175 201 4,800 -1,091 Descending FlightAware ADS-B
Sat 12:44:50 AM 49.0432 2.8788 265° West 173 199 4,500 -960 Descending FlightAware ADS-B
Sat 12:44:59 AM 49.0426 2.8682 265° West 171 197 4,400 -1,000 Descending FlightAware ADS-B
Sat 12:45:14 AM 49.0418 2.8504 266° West 169 194 4,100 -968 Descending FlightAware ADS-B
Sat 12:45:30 AM 49.0408 2.8317 265° West 168 193 3,900 -968 Descending FlightAware ADS-B
Sat 12:45:45 AM 49.0399 2.8138 266° West 167 192 3,600 -968 Descending FlightAware ADS-B
Sat 12:46:01 AM 49.0390 2.7957 266° West 163 188 3,400 -774 Descending FlightAware ADS-B
Sat 12:46:16 AM 49.0381 2.7784 265° West 165 190 3,200 -800 Descending FlightAware ADS-B
Sat 12:46:31 AM 49.0372 2.7612 265° West 162 186 3,000 -968 Descending FlightAware ADS-B
Sat 12:46:47 AM 49.0363 2.7433 266° West 161 185 2,700 -960 Descending FlightAware ADS-B
Sat 12:46:56 AM 49.0358 2.7333 266° West 163 188 2,600 -720 Descending FlightAware ADS-B
Sat 12:47:12 AM 49.0348 2.7150 265° West 159 183 2,400 -968 Descending FlightAware ADS-B
Sat 12:47:27 AM 49.0339 2.6987 265° West 141 162 2,100 -818 Descending FlightAware ADS-B
Sat 12:47:34 AM 49.0336 2.6925 266° West 133 153 2,100 -545 Level FlightAware ADS-B
Sat 12:47:49 AM 49.0329 2.6790 265° West 122 140 1,900 -800 Descending FlightAware ADS-B
Sat 12:48:04 AM 49.0324 2.6667 266° West 122 140 1,700 -720 Descending FlightAware ADS-B
Sat 12:48:14 AM 49.0319 2.6576 265° West 122 140 1,600 -667 Descending FlightAware ADS-B
Sat 12:48:22 AM 49.0316 2.6511 266° West 122 140 1,500 -571 Descending FlightAware ADS-B
Sat 12:48:35 AM 49.0309 2.6398 265° West 124 143 1,400 -692 Descending FlightAware ADS-B
Sat 12:48:48 AM 49.0303 2.6281 266° West 126 145 1,200 -783 Descending FlightAware ADS-B
Sat 12:48:58 AM 49.0298 2.6190 265° West 130 150 1,100 -692 Descending FlightAware ADS-B
Sat 12:49:14 AM 49.0291 2.6050 266° West 128 147 900 -692 Descending FlightAware ADS-B
Sat 12:49:24 AM 49.0285 2.5957 264° West 128 147 800 -720 Descending FlightAware ADS-B
Sat 12:49:39 AM 49.0278 2.5816 266° West 135 155 600 -774 Descending FlightAware ADS-B
Sat 12:49:55 AM 49.0270 2.5671 265° West 135 155 400 -581 Descending FlightAware ADS-B
Sat 12:50:10 AM 49.0262 2.5527 265° West 135 155 300 -400 Descending FlightAware ADS-B

Login

Don't have an account? Register now (free) for customized features, flight alerts, and more!